This is the latest recevied weather packets stored in our database for station/object N2RFA-13. If no packets are shown the sender has not sent any weather packets the latest 10 day(s).
| Time | Temp. | Humidity | Pressure | Rain* | Wind** | Luminosity | Snow |
|---|---|---|---|---|---|---|---|
| 1777438842 | 11.67° C | 71% | 1019.1 hPa | 0 mm | - | - | - |
| 1777437037 | 11.67° C | 69% | 1019.5 hPa | 0 mm | - | - | - |
| 1777428929 | 12.22° C | 65% | 1018.7 hPa | 0 mm | - | - | - |
| 1777428033 | 12.78° C | 65% | 1018.9 hPa | 0 mm | - | - | - |
| 1777426229 | 12.78° C | 63% | 1019 hPa | 0 mm | - | - | - |
| 1777420818 | 13.89° C | 59% | 1019.2 hPa | 0 mm | - | - | - |
| 1777417217 | 14.44° C | 56% | 1019.4 hPa | 0 mm | - | - | - |
| 1777413614 | 16.11° C | 50% | 1019.4 hPa | 0 mm | - | - | - |
| 1777411812 | 15.56° C | 48% | 1019.5 hPa | 0 mm | - | - | - |
| 1777406405 | 17.22° C | 47% | 1020.1 hPa | 0 mm | - | - | - |
| 1777404602 | 16.67° C | 47% | 1020.5 hPa | 0 mm | - | - | - |
| 1777400216 | 16.67° C | 47% | 1021.3 hPa | 0 mm | - | - | - |
| 1777399255 | 16.67° C | 47% | 1021.3 hPa | 0 mm | - | - | - |
| 1777398354 | 16.11° C | 46% | 1021.4 hPa | 0 mm | - | - | - |
| 1777396553 | 16.67° C | 46% | 1021.6 hPa | 0 mm | - | - | - |
| 1777393856 | 18.33° C | 43% | 1021.9 hPa | 0 mm | - | - | - |
| 1777392946 | 18.33° C | 43% | 1022 hPa | 0 mm | - | - | - |
| 1777386635 | 17.22° C | 44% | 1022.6 hPa | 0 mm | - | - | - |
| 1777385745 | 16.67° C | 44% | 1022.6 hPa | 0 mm | - | - | - |
| 1777384830 | 16.67° C | 46% | 1022.7 hPa | 0 mm | - | - | - |
| 1777379410 | 12.22° C | 60% | 1022.7 hPa | 0 mm | - | - | - |
| 1777378508 | 10.56° C | 71% | 1022.9 hPa | 0 mm | - | - | - |
| 1777377660 | 8.33° C | 83% | 1023 hPa | 0 mm | - | - | - |
| 1777375866 | 5° C | 91% | 1022.9 hPa | 0 mm | - | - | - |
| 1777373155 | 2.78° C | 91% | 1022.9 hPa | 0 mm | - | - | - |
* Rain latest hour (hover to see other rain measurements)
** Current wind speed in m/s (hover to see current wind gust speed)